Time;durP1;ratioP1;P1;durP2;ratioP2;P2;SDS_P1;SDS_P2;PMS_P1;PMS_P2;Temp;Humidity;BMP_temperature;BMP_pressure;BME280_temperature;BME280_humidity;BME280_pressure;Samples;Min_cycle;Max_cycle;Signal;HPM_P1;HPM_P2
2022/08/14 00:00:52;;;;;;;6.13;4.25;;;24.80;56.30;;;;;;2074879;28;20500;-70
2022/08/14 00:01:53;;;;;;;4.43;4.13;;;24.80;57.00;;;;;;2074200;28;20014;-70
2022/08/14 00:02:53;;;;;;;5.63;4.32;;;24.80;56.40;;;;;;2075226;28;20026;-70
2022/08/14 00:03:54;;;;;;;4.57;4.18;;;24.80;56.50;;;;;;2076949;28;20018;-70
2022/08/14 00:04:55;;;;;;;5.72;4.45;;;24.80;56.60;;;;;;2074481;28;20022;-70
2022/08/14 00:05:57;;;;;;;4.80;4.22;;;24.80;56.80;;;;;;2074792;28;20097;-70
2022/08/14 00:06:58;;;;;;;4.72;4.32;;;24.80;57.00;;;;;;2074704;28;20465;-70
2022/08/14 00:07:58;;;;;;;7.57;4.55;;;24.80;57.00;;;;;;2075302;28;20578;-70
2022/08/14 00:08:59;;;;;;;5.72;4.03;;;24.80;57.10;;;;;;2074439;28;20018;-70
2022/08/14 00:10:01;;;;;;;4.57;4.28;;;24.80;57.20;;;;;;2074457;28;20018;-70
2022/08/14 00:11:01;;;;;;;5.00;4.50;;;24.80;57.40;;;;;;2074451;28;20018;-70
2022/08/14 00:12:04;;;;;;;4.82;4.43;;;24.80;57.50;;;;;;2076515;28;20097;-70
2022/08/14 00:13:05;;;;;;;6.93;4.78;;;24.80;57.40;;;;;;2073203;28;20022;-70
2022/08/14 00:14:06;;;;;;;4.60;4.20;;;24.80;57.60;;;;;;2075011;28;20034;-70
2022/08/14 00:15:20;;;;;;;9.88;5.03;;;24.80;57.70;;;;;;2075426;28;20056;-70
2022/08/14 00:16:21;;;;;;;5.20;4.70;;;24.80;58.10;;;;;;2073037;28;20018;-70
2022/08/14 00:17:23;;;;;;;5.00;4.50;;;24.70;57.90;;;;;;2074332;28;20048;-70
2022/08/14 00:18:25;;;;;;;5.40;4.97;;;24.70;58.20;;;;;;2073136;28;20106;-70
2022/08/14 00:19:26;;;;;;;4.68;4.28;;;24.80;58.40;;;;;;2075865;28;20034;-70
2022/08/14 00:20:31;;;;;;;5.47;4.30;;;24.70;58.20;;;;;;2077300;28;20532;-70
2022/08/14 00:21:32;;;;;;;5.30;4.90;;;24.70;58.30;;;;;;2076258;28;20161;-70
2022/08/14 00:22:32;;;;;;;5.28;4.85;;;24.70;58.30;;;;;;2075138;28;20026;-70
2022/08/14 00:23:33;;;;;;;5.95;4.50;;;24.70;58.40;;;;;;2075527;28;20099;-70
2022/08/14 00:24:33;;;;;;;4.50;4.10;;;24.70;58.40;;;;;;2074004;28;20030;-70
2022/08/14 00:25:35;;;;;;;5.28;4.45;;;24.80;58.50;;;;;;2073718;28;20026;-70
2022/08/14 00:26:35;;;;;;;5.10;4.60;;;24.70;58.60;;;;;;2077029;28;20079;-70
2022/08/14 00:27:36;;;;;;;4.95;4.53;;;24.80;58.70;;;;;;2075097;28;20099;-70
2022/08/14 00:28:37;;;;;;;4.72;4.32;;;24.80;58.80;;;;;;2076964;28;20056;-70
2022/08/14 00:29:37;;;;;;;5.03;4.20;;;24.80;58.80;;;;;;2075016;28;20351;-70
2022/08/14 00:30:38;;;;;;;5.60;4.63;;;24.70;58.80;;;;;;2071605;28;20029;-70
2022/08/14 00:31:39;;;;;;;4.93;4.53;;;24.70;58.90;;;;;;2074581;28;20038;-70
2022/08/14 00:32:41;;;;;;;4.88;4.35;;;24.70;59.00;;;;;;2072659;28;20064;-70
2022/08/14 00:33:41;;;;;;;5.03;4.55;;;24.70;59.00;;;;;;2073853;28;20083;-70
2022/08/14 00:34:42;;;;;;;6.20;4.55;;;24.70;59.10;;;;;;2075382;28;20072;-71
2022/08/14 00:35:44;;;;;;;5.10;4.70;;;24.70;59.10;;;;;;2073925;28;20037;-70
2022/08/14 00:36:44;;;;;;;4.70;4.30;;;24.70;59.20;;;;;;2075346;28;20561;-70
2022/08/14 00:37:45;;;;;;;4.63;4.22;;;24.70;59.30;;;;;;2075290;28;20405;-70
2022/08/14 00:38:46;;;;;;;6.03;4.88;;;24.70;59.40;;;;;;2074868;28;20026;-70
2022/08/14 00:39:47;;;;;;;5.40;4.90;;;24.70;59.40;;;;;;2073351;28;20018;-70
2022/08/14 00:40:48;;;;;;;5.47;4.35;;;24.70;59.20;;;;;;2074417;28;20057;-70
2022/08/14 00:41:49;;;;;;;5.05;4.65;;;24.70;59.00;;;;;;2076368;28;20030;-70
2022/08/14 00:42:50;;;;;;;5.20;4.80;;;24.70;59.10;;;;;;2075878;28;20024;-70
2022/08/14 00:43:51;;;;;;;5.03;4.68;;;24.70;59.70;;;;;;2076943;28;20084;-70
2022/08/14 00:44:52;;;;;;;5.72;4.80;;;24.70;59.70;;;;;;2075497;28;20101;-70
2022/08/14 00:45:52;;;;;;;5.20;4.80;;;24.70;59.90;;;;;;2073237;28;20511;-70
2022/08/14 00:46:53;;;;;;;5.03;4.53;;;24.60;59.60;;;;;;2074004;28;20386;-70
2022/08/14 00:47:53;;;;;;;5.18;4.55;;;24.60;59.60;;;;;;2073833;28;20021;-70
2022/08/14 00:48:54;;;;;;;6.55;4.47;;;24.60;59.20;;;;;;2075885;28;20038;-70
2022/08/14 00:49:57;;;;;;;5.20;4.60;;;24.60;59.10;;;;;;2076729;28;20026;-70
2022/08/14 00:50:58;;;;;;;8.27;4.45;;;24.60;59.40;;;;;;2074994;28;20038;-70
2022/08/14 00:51:59;;;;;;;5.22;4.78;;;24.60;59.60;;;;;;2075735;28;20029;-70
2022/08/14 00:53:00;;;;;;;4.97;4.57;;;24.60;59.60;;;;;;2076978;28;20069;-70
2022/08/14 00:54:03;;;;;;;5.50;4.95;;;24.60;59.90;;;;;;2076459;28;20022;-70
2022/08/14 00:55:07;;;;;;;5.20;4.70;;;24.50;59.70;;;;;;2073580;28;20022;-70
2022/08/14 00:56:08;;;;;;;4.93;4.53;;;24.50;59.80;;;;;;2074965;28;20025;-71
2022/08/14 00:57:12;;;;;;;5.10;4.60;;;24.50;58.90;;;;;;2065569;28;20366;-70
2022/08/14 00:58:31;;;;;;;5.43;4.93;;;24.50;59.60;;;;;;2072364;28;20013;-70
2022/08/14 00:59:31;;;;;;;5.50;5.00;;;24.50;59.90;;;;;;2073431;28;20042;-70
2022/08/14 01:00:33;;;;;;;5.28;4.80;;;24.40;60.00;;;;;;2077421;28;20022;-70
2022/08/14 01:01:35;;;;;;;4.75;4.38;;;24.40;59.20;;;;;;2074571;28;20051;-70
2022/08/14 01:02:36;;;;;;;6.63;5.25;;;24.40;59.20;;;;;;2077899;28;20041;-70
2022/08/14 01:03:38;;;;;;;5.55;5.05;;;24.40;60.70;;;;;;2071069;28;20568;-70
2022/08/14 01:04:39;;;;;;;6.10;5.00;;;24.40;61.00;;;;;;2075176;28;20014;-71
2022/08/14 01:05:43;;;;;;;5.07;4.57;;;24.30;61.50;;;;;;2074678;28;20032;-71
2022/08/14 01:06:43;;;;;;;5.20;4.70;;;24.30;61.30;;;;;;2075431;28;20104;-71
2022/08/14 01:07:45;;;;;;;6.97;5.13;;;24.30;61.70;;;;;;2076046;28;20072;-71
2022/08/14 01:08:45;;;;;;;5.78;5.10;;;24.30;62.00;;;;;;2077514;28;20033;-71
2022/08/14 01:09:54;;;;;;;5.18;4.78;;;24.30;62.00;;;;;;2073551;28;20527;-71
2022/08/14 01:10:56;;;;;;;5.10;4.63;;;24.20;61.80;;;;;;2075003;28;20037;-71
2022/08/14 01:11:57;;;;;;;5.20;4.75;;;24.20;60.70;;;;;;2076133;28;20018;-71
2022/08/14 01:12:58;;;;;;;5.45;5.03;;;24.10;61.70;;;;;;2074275;28;20049;-71
2022/08/14 01:14:00;;;;;;;5.00;4.47;;;24.10;62.70;;;;;;2072568;28;20428;-71
2022/08/14 01:15:01;;;;;;;5.22;4.72;;;24.10;63.00;;;;;;2075643;28;20036;-71
2022/08/14 01:16:10;;;;;;;7.60;4.78;;;24.10;62.30;;;;;;2074955;28;20426;-71
2022/08/14 01:17:11;;;;;;;4.85;4.45;;;24.00;60.60;;;;;;2069584;28;20034;-71
2022/08/14 01:21:03;;;;;;;5.28;4.88;;;23.90;61.80;;;;;;2073563;28;20390;-71
2022/08/14 01:22:06;;;;;;;6.93;4.90;;;23.80;63.40;;;;;;2066897;28;20398;-71
2022/08/14 01:23:11;;;;;;;5.30;4.78;;;23.80;63.60;;;;;;2066355;28;20077;-71
2022/08/14 01:24:14;;;;;;;5.55;4.97;;;23.80;64.50;;;;;;2075325;28;20029;-71
2022/08/14 01:25:14;;;;;;;5.93;5.20;;;23.80;64.30;;;;;;2073980;28;20018;-71
2022/08/14 01:26:20;;;;;;;6.93;4.63;;;23.70;64.80;;;;;;2074728;28;20112;-71
2022/08/14 01:27:22;;;;;;;5.47;4.97;;;23.70;64.40;;;;;;2075009;28;20071;-71
2022/08/14 01:28:26;;;;;;;7.25;5.30;;;23.60;63.10;;;;;;2077980;28;20445;-71
2022/08/14 01:29:29;;;;;;;5.50;4.93;;;23.60;64.50;;;;;;2072677;28;20045;-71
2022/08/14 01:30:31;;;;;;;6.25;5.00;;;23.60;64.10;;;;;;2077049;28;20511;-71
2022/08/14 01:31:37;;;;;;;5.60;5.10;;;23.60;64.20;;;;;;2074772;28;20045;-71
2022/08/14 01:32:38;;;;;;;6.05;4.72;;;23.60;64.10;;;;;;2075196;28;20500;-71
2022/08/14 01:33:45;;;;;;;5.45;5.00;;;23.50;63.80;;;;;;2073800;28;20124;-71
2022/08/14 01:34:50;;;;;;;5.60;5.03;;;23.50;63.40;;;;;;2074617;28;20025;-71
2022/08/14 01:35:51;;;;;;;5.38;4.93;;;23.50;64.40;;;;;;2074731;28;20041;-71
2022/08/14 01:36:52;;;;;;;5.88;5.38;;;23.50;63.90;;;;;;2072377;28;20109;-71
2022/08/14 01:37:53;;;;;;;6.57;5.97;;;23.40;65.80;;;;;;2074167;28;20557;-71
2022/08/14 01:38:57;;;;;;;5.47;4.97;;;23.40;66.40;;;;;;2081717;28;20436;-71
2022/08/14 01:39:58;;;;;;;7.38;5.05;;;23.40;66.50;;;;;;2088317;28;20059;-71
2022/08/14 01:41:10;;;;;;;5.72;5.18;;;23.40;67.10;;;;;;2077318;28;20465;-71
2022/08/14 01:42:11;;;;;;;8.13;5.35;;;23.30;68.50;;;;;;2075149;28;20041;-71
2022/08/14 01:43:14;;;;;;;6.28;5.78;;;23.30;67.90;;;;;;2076061;28;20028;-71
2022/08/14 01:44:15;;;;;;;5.65;5.25;;;23.30;68.20;;;;;;2074800;28;20018;-71
2022/08/14 01:45:16;;;;;;;6.15;5.63;;;23.20;67.80;;;;;;2076221;28;20040;-71
2022/08/14 01:46:19;;;;;;;5.40;4.90;;;23.20;67.90;;;;;;2077786;28;20033;-71
2022/08/14 01:47:19;;;;;;;5.32;4.93;;;23.20;70.10;;;;;;2077044;28;20457;-71
2022/08/14 01:48:22;;;;;;;5.68;5.20;;;23.10;68.00;;;;;;2074104;28;20433;-71
2022/08/14 01:49:23;;;;;;;5.57;5.07;;;23.10;68.70;;;;;;2078681;28;20424;-71
2022/08/14 01:50:23;;;;;;;7.07;5.43;;;23.10;69.70;;;;;;2073279;28;20077;-71
2022/08/14 01:51:27;;;;;;;7.00;5.45;;;23.10;69.80;;;;;;2077744;28;20108;-71
2022/08/14 01:52:33;;;;;;;6.22;5.40;;;23.10;71.20;;;;;;2076810;28;20027;-71
2022/08/14 01:53:33;;;;;;;5.30;4.88;;;23.00;71.00;;;;;;2070916;28;20424;-71
2022/08/14 01:54:35;;;;;;;10.25;5.97;;;23.00;70.90;;;;;;2074466;28;20021;-71
2022/08/14 01:55:38;;;;;;;5.78;5.38;;;23.00;72.50;;;;;;2075742;28;20056;-71
2022/08/14 01:56:39;;;;;;;6.00;5.40;;;22.90;70.80;;;;;;2075819;28;20033;-71
2022/08/14 01:57:43;;;;;;;6.00;5.45;;;22.90;72.60;;;;;;2074754;28;20080;-71
2022/08/14 01:58:47;;;;;;;6.35;5.00;;;22.90;74.10;;;;;;2071575;28;20492;-71
2022/08/14 01:59:49;;;;;;;6.35;5.05;;;22.90;73.20;;;;;;2071936;28;20374;-71
2022/08/14 02:00:53;;;;;;;5.57;5.07;;;22.80;71.50;;;;;;2072368;28;20018;-71
2022/08/14 02:01:55;;;;;;;6.68;5.40;;;22.80;72.50;;;;;;2072628;28;20018;-71
2022/08/14 02:02:57;;;;;;;5.80;5.30;;;22.70;73.00;;;;;;2074949;28;20071;-71
2022/08/14 02:03:57;;;;;;;7.35;5.75;;;22.70;75.00;;;;;;2075203;28;20040;-71
2022/08/14 02:04:59;;;;;;;6.07;5.47;;;22.70;76.20;;;;;;2072936;28;20026;-71
2022/08/14 02:06:02;;;;;;;5.85;5.35;;;22.70;75.10;;;;;;2074852;28;20021;-71
2022/08/14 02:07:04;;;;;;;6.78;6.15;;;22.60;76.80;;;;;;2072400;28;20482;-71
2022/08/14 02:08:06;;;;;;;7.70;5.55;;;22.60;78.30;;;;;;2073763;28;20466;-71
2022/08/14 02:09:08;;;;;;;6.22;5.72;;;22.60;77.90;;;;;;2072534;28;20018;-71
2022/08/14 02:10:10;;;;;;;6.22;5.63;;;22.60;76.00;;;;;;2073310;28;20022;-71
2022/08/14 02:11:23;;;;;;;6.68;6.07;;;22.50;78.30;;;;;;2073875;28;20028;-71
2022/08/14 02:12:24;;;;;;;6.00;5.50;;;22.50;78.70;;;;;;2073549;28;20100;-71
2022/08/14 02:13:24;;;;;;;7.00;6.35;;;22.50;77.80;;;;;;2072373;28;20042;-71
2022/08/14 02:14:25;;;;;;;10.55;5.78;;;22.40;79.80;;;;;;2075182;28;20097;-71
2022/08/14 02:15:26;;;;;;;7.18;5.97;;;22.40;80.40;;;;;;2074888;28;20446;-71
2022/08/14 02:16:32;;;;;;;8.27;5.93;;;22.40;81.30;;;;;;2072235;28;20140;-71
2022/08/14 02:17:33;;;;;;;5.88;5.28;;;22.40;81.70;;;;;;2071974;28;20037;-71
2022/08/14 02:18:34;;;;;;;6.20;5.70;;;22.30;79.40;;;;;;2073045;28;20022;-71
2022/08/14 02:19:35;;;;;;;6.45;5.85;;;22.30;82.20;;;;;;2072431;28;20029;-71
2022/08/14 02:20:36;;;;;;;6.85;5.88;;;22.30;81.80;;;;;;2075610;28;20021;-71
2022/08/14 02:21:36;;;;;;;6.72;6.13;;;22.30;83.60;;;;;;2075401;28;20537;-71
2022/08/14 02:22:37;;;;;;;5.68;5.18;;;22.20;84.30;;;;;;2074554;28;20026;-71
2022/08/14 02:23:38;;;;;;;6.85;6.25;;;22.20;84.90;;;;;;2073548;28;20022;-71
2022/08/14 02:24:39;;;;;;;7.60;6.53;;;22.20;85.70;;;;;;2073239;28;20113;-71
2022/08/14 02:25:39;;;;;;;6.47;5.88;;;22.20;86.70;;;;;;2070966;28;20148;-71
2022/08/14 02:26:46;;;;;;;6.93;6.05;;;22.20;87.10;;;;;;2073272;28;20374;-71
2022/08/14 02:27:48;;;;;;;7.07;5.82;;;22.10;88.10;;;;;;2072755;28;20025;-71
2022/08/14 02:28:51;;;;;;;6.57;5.97;;;22.10;87.80;;;;;;2074713;28;20022;-71
2022/08/14 02:29:54;;;;;;;8.10;6.13;;;22.10;87.10;;;;;;2072921;28;20026;-71
2022/08/14 02:30:55;;;;;;;5.72;5.22;;;22.10;87.50;;;;;;2074344;28;20026;-71
2022/08/14 02:31:58;;;;;;;6.53;6.00;;;22.00;87.90;;;;;;2075811;28;20564;-71
2022/08/14 02:33:00;;;;;;;6.80;6.30;;;22.00;88.60;;;;;;2072141;28;20033;-71
2022/08/14 02:34:21;;;;;;;6.13;5.63;;;22.00;89.10;;;;;;2073704;28;20018;-71
2022/08/14 02:35:24;;;;;;;6.25;5.65;;;22.00;88.60;;;;;;2072581;28;20123;-71
2022/08/14 02:36:25;;;;;;;6.68;6.18;;;21.90;88.10;;;;;;2072684;28;20053;-71
2022/08/14 02:37:26;;;;;;;6.38;5.75;;;21.90;86.50;;;;;;2073941;28;20033;-71
2022/08/14 02:38:27;;;;;;;6.70;5.88;;;21.90;89.60;;;;;;2075577;28;20021;-71
2022/08/14 02:39:29;;;;;;;6.60;5.90;;;21.80;89.20;;;;;;2075670;28;20060;-71
2022/08/14 02:40:31;;;;;;;6.63;5.63;;;21.90;90.30;;;;;;2072617;28;20533;-71
2022/08/14 02:41:33;;;;;;;6.43;5.82;;;21.80;90.40;;;;;;2074809;28;20029;-71
2022/08/14 02:42:33;;;;;;;6.22;5.68;;;21.80;88.00;;;;;;2071806;28;20029;-71
2022/08/14 02:43:34;;;;;;;6.55;5.82;;;21.80;87.30;;;;;;2073164;28;20033;-71
2022/08/14 02:44:35;;;;;;;6.78;6.18;;;21.80;90.00;;;;;;2073288;28;20417;-71
2022/08/14 02:45:35;;;;;;;6.45;5.88;;;21.80;90.80;;;;;;2074491;28;20169;-71
2022/08/14 02:46:43;;;;;;;6.13;5.60;;;21.70;90.90;;;;;;2075331;28;20028;-71
2022/08/14 02:47:43;;;;;;;6.68;6.07;;;21.70;91.40;;;;;;2074615;28;20478;-71
2022/08/14 02:48:44;;;;;;;6.80;6.25;;;21.70;92.00;;;;;;2075395;28;20385;-71
2022/08/14 02:49:45;;;;;;;6.90;6.35;;;21.70;92.00;;;;;;2073426;28;20034;-71
2022/08/14 02:50:45;;;;;;;6.30;5.82;;;21.70;92.70;;;;;;2072302;28;20554;-71
2022/08/14 02:51:47;;;;;;;7.10;5.80;;;21.70;92.60;;;;;;2073163;28;20021;-71
2022/08/14 02:52:48;;;;;;;6.50;6.00;;;21.60;91.50;;;;;;2073979;28;20434;-71
2022/08/14 02:53:49;;;;;;;7.00;6.40;;;21.60;92.50;;;;;;2072335;28;20081;-71
2022/08/14 02:54:51;;;;;;;6.80;6.20;;;21.60;92.80;;;;;;2076731;28;20051;-71
2022/08/14 02:55:52;;;;;;;6.45;5.85;;;21.60;93.20;;;;;;2075383;28;20033;-71
2022/08/14 02:56:55;;;;;;;6.72;6.13;;;21.60;92.40;;;;;;2073605;28;20053;-71
2022/08/14 02:57:56;;;;;;;6.65;6.05;;;21.50;91.20;;;;;;2074844;28;20544;-71
2022/08/14 02:59:00;;;;;;;7.45;6.65;;;21.50;92.40;;;;;;2072409;28;20444;-71
2022/08/14 03:00:02;;;;;;;6.20;5.70;;;21.50;93.50;;;;;;2073717;28;20101;-71
2022/08/14 03:01:03;;;;;;;6.22;5.72;;;21.50;93.60;;;;;;2074427;28;20022;-71
2022/08/14 03:02:04;;;;;;;6.57;5.97;;;21.50;93.30;;;;;;2070617;28;20056;-71
2022/08/14 03:03:04;;;;;;;6.40;5.88;;;21.50;93.10;;;;;;2074315;28;20052;-71
2022/08/14 03:04:06;;;;;;;5.90;5.50;;;21.50;93.10;;;;;;2074951;28;20265;-71
2022/08/14 03:05:07;;;;;;;9.57;6.18;;;21.40;91.80;;;;;;2077162;28;20113;-71
2022/08/14 03:06:12;;;;;;;8.60;6.35;;;21.40;92.30;;;;;;2072535;28;20041;-71
2022/08/14 03:07:15;;;;;;;6.20;5.70;;;21.40;93.10;;;;;;2070291;28;20073;-71
2022/08/14 03:08:17;;;;;;;6.32;5.78;;;21.40;91.70;;;;;;2073097;28;20064;-71
2022/08/14 03:09:18;;;;;;;6.40;5.90;;;21.40;94.00;;;;;;2073649;28;20050;-71
2022/08/14 03:10:18;;;;;;;7.07;6.47;;;21.40;92.90;;;;;;2074425;28;20026;-71
2022/08/14 03:11:20;;;;;;;6.75;6.15;;;21.40;94.10;;;;;;2075041;28;20079;-71
2022/08/14 03:12:22;;;;;;;7.18;6.57;;;21.40;94.90;;;;;;2075653;28;20025;-71
2022/08/14 03:13:23;;;;;;;6.72;6.20;;;21.40;95.10;;;;;;2073558;28;20108;-71
2022/08/14 03:14:24;;;;;;;7.13;6.50;;;21.40;95.10;;;;;;2075823;28;20022;-71
2022/08/14 03:15:25;;;;;;;7.10;6.10;;;21.30;96.50;;;;;;2072673;28;20041;-71
2022/08/14 03:16:34;;;;;;;6.20;5.70;;;21.30;95.60;;;;;;2071947;28;20026;-71
2022/08/14 03:17:35;;;;;;;6.88;6.28;;;21.30;94.00;;;;;;2074071;28;20034;-71
2022/08/14 03:18:41;;;;;;;6.22;5.63;;;21.20;96.10;;;;;;2074076;28;20026;-71
2022/08/14 03:19:41;;;;;;;6.85;6.22;;;21.20;95.10;;;;;;2072512;28;20036;-71
2022/08/14 03:20:42;;;;;;;5.93;5.43;;;21.20;95.90;;;;;;2073013;28;20033;-71
2022/08/14 03:21:43;;;;;;;7.13;6.43;;;21.20;96.50;;;;;;2073935;28;20026;-71
2022/08/14 03:22:43;;;;;;;7.25;6.65;;;21.20;97.10;;;;;;2074989;28;20021;-71
2022/08/14 03:23:47;;;;;;;7.88;7.18;;;21.20;97.10;;;;;;2074557;28;20109;-71
2022/08/14 03:24:47;;;;;;;6.90;6.28;;;21.20;97.90;;;;;;2072883;28;20382;-71
2022/08/14 03:25:48;;;;;;;7.40;6.45;;;21.10;98.00;;;;;;2074286;28;20025;-71
2022/08/14 03:26:50;;;;;;;7.28;6.57;;;21.10;96.60;;;;;;2075430;28;20022;-71
2022/08/14 03:27:51;;;;;;;6.85;6.35;;;21.10;97.60;;;;;;2073846;28;20505;-70
2022/08/14 03:28:51;;;;;;;6.88;6.35;;;21.10;97.80;;;;;;2075940;28;20467;-71
2022/08/14 03:29:53;;;;;;;6.85;6.35;;;21.10;98.50;;;;;;2076757;28;20049;-71
2022/08/14 03:30:53;;;;;;;8.18;7.32;;;21.10;98.60;;;;;;2073462;28;20025;-71
2022/08/14 03:31:55;;;;;;;7.85;7.10;;;21.00;98.60;;;;;;2072798;28;20018;-71
2022/08/14 03:32:56;;;;;;;7.63;6.93;;;21.00;97.60;;;;;;2073779;28;20018;-71
2022/08/14 03:33:58;;;;;;;6.78;6.15;;;21.00;98.20;;;;;;2074267;28;20109;-71
2022/08/14 03:34:59;;;;;;;7.25;6.65;;;21.00;98.00;;;;;;2075378;28;20508;-71
2022/08/14 03:36:00;;;;;;;7.18;6.47;;;21.00;99.20;;;;;;2074936;28;20397;-71
2022/08/14 03:37:00;;;;;;;7.65;7.05;;;21.00;99.90;;;;;;2074044;28;20022;-71
2022/08/14 03:38:09;;;;;;;7.47;6.88;;;21.00;99.90;;;;;;2076554;28;20190;-71
2022/08/14 03:39:11;;;;;;;7.20;6.40;;;21.00;99.60;;;;;;2071235;28;20026;-71
2022/08/14 03:40:11;;;;;;;7.38;6.68;;;20.90;99.10;;;;;;2072084;28;20022;-71
2022/08/14 03:41:15;;;;;;;7.38;6.78;;;20.90;99.90;;;;;;2070370;28;20029;-71
2022/08/14 03:42:16;;;;;;;7.00;6.35;;;20.90;99.70;;;;;;2071884;28;20394;-71
2022/08/14 03:43:16;;;;;;;7.55;6.70;;;20.90;99.60;;;;;;2075980;28;20088;-71
2022/08/14 03:44:17;;;;;;;8.45;6.63;;;20.90;99.90;;;;;;2072923;28;20030;-71
2022/08/14 03:45:18;;;;;;;7.25;6.68;;;20.80;99.90;;;;;;2075165;28;20021;-71
2022/08/14 03:46:19;;;;;;;7.22;6.68;;;20.80;99.90;;;;;;2075170;28;20473;-71
2022/08/14 03:47:19;;;;;;;7.97;7.30;;;20.80;99.90;;;;;;2073283;28;20021;-71
2022/08/14 03:48:20;;;;;;;7.32;6.63;;;20.80;99.90;;;;;;2072212;28;20017;-71
2022/08/14 03:49:23;;;;;;;7.68;6.97;;;20.80;99.90;;;;;;2074290;28;20092;-71
2022/08/14 03:50:23;;;;;;;6.93;6.35;;;20.80;99.90;;;;;;2074268;28;20084;-71
2022/08/14 03:51:27;;;;;;;6.60;6.10;;;20.70;99.90;;;;;;2076822;28;20096;-71
2022/08/14 03:52:28;;;;;;;7.55;6.85;;;20.70;99.90;;;;;;2077193;28;20436;-71
2022/08/14 03:53:29;;;;;;;6.55;6.03;;;20.70;99.90;;;;;;2074207;28;20026;-71
2022/08/14 03:54:29;;;;;;;7.15;6.45;;;20.70;99.90;;;;;;2075248;28;20024;-71
2022/08/14 03:55:30;;;;;;;7.82;7.03;;;20.70;99.90;;;;;;2074827;28;20014;-71
2022/08/14 03:56:31;;;;;;;7.32;6.80;;;20.70;99.90;;;;;;2084732;28;20013;-71
2022/08/14 03:57:34;;;;;;;7.32;6.57;;;20.70;99.90;;;;;;2089267;28;20021;-71
2022/08/14 03:58:40;;;;;;;7.22;6.53;;;20.70;99.90;;;;;;2073097;28;20022;-70
2022/08/14 03:59:42;;;;;;;7.07;6.55;;;20.60;99.90;;;;;;2073224;28;20478;-71
2022/08/14 04:00:44;;;;;;;7.50;6.93;;;20.60;99.90;;;;;;2074727;28;20545;-71
2022/08/14 04:01:48;;;;;;;7.72;7.13;;;20.60;99.90;;;;;;2073387;28;20093;-71
2022/08/14 04:02:49;;;;;;;7.38;6.72;;;20.60;99.90;;;;;;2073792;28;20054;-71
2022/08/14 04:03:51;;;;;;;8.52;7.55;;;20.60;99.90;;;;;;2074277;28;20010;-71
2022/08/14 04:04:52;;;;;;;7.80;6.05;;;20.60;99.90;;;;;;2073098;28;20026;-71
2022/08/14 04:05:53;;;;;;;7.85;7.13;;;20.50;99.90;;;;;;2075531;28;20025;-71
2022/08/14 04:06:53;;;;;;;8.82;8.00;;;20.50;99.90;;;;;;2071718;28;20022;-71
2022/08/14 04:07:54;;;;;;;8.77;7.15;;;20.50;99.90;;;;;;2075468;28;20017;-71
2022/08/14 04:08:55;;;;;;;7.93;7.13;;;20.50;99.90;;;;;;2075179;28;20025;-71
2022/08/14 04:09:55;;;;;;;7.75;7.05;;;20.50;99.90;;;;;;2076722;28;20037;-71
2022/08/14 04:10:56;;;;;;;7.82;7.15;;;20.50;99.90;;;;;;2074955;28;20026;-71
2022/08/14 04:11:58;;;;;;;8.07;7.30;;;20.50;99.90;;;;;;2074928;28;20363;-71
2022/08/14 04:13:04;;;;;;;8.07;7.38;;;20.40;99.90;;;;;;2072001;28;20036;-71
2022/08/14 04:14:05;;;;;;;7.85;7.22;;;20.40;99.90;;;;;;2072876;28;20052;-71
2022/08/14 04:15:07;;;;;;;7.10;6.60;;;20.40;99.90;;;;;;2075053;28;20029;-71
2022/08/14 04:16:19;;;;;;;8.05;7.07;;;20.40;99.90;;;;;;2073698;28;20071;-71
2022/08/14 04:17:20;;;;;;;7.43;6.72;;;20.40;99.90;;;;;;2074513;28;20052;-71
2022/08/14 04:18:20;;;;;;;9.00;8.10;;;20.40;99.90;;;;;;2074691;28;20544;-71
2022/08/14 04:19:22;;;;;;;7.70;7.10;;;20.40;99.90;;;;;;2073498;28;20025;-71
2022/08/14 04:20:23;;;;;;;7.50;6.90;;;20.40;99.90;;;;;;2073171;28;20073;-71
2022/08/14 04:21:27;;;;;;;10.25;7.60;;;20.40;99.90;;;;;;2077048;28;20097;-71
2022/08/14 04:22:27;;;;;;;8.60;7.78;;;20.40;99.90;;;;;;2068856;28;20026;-71
2022/08/14 04:23:28;;;;;;;8.38;7.57;;;20.30;99.90;;;;;;2071448;28;20104;-71
2022/08/14 04:24:29;;;;;;;8.07;7.28;;;20.30;99.90;;;;;;2075188;28;20308;-71
2022/08/14 04:25:32;;;;;;;7.70;7.07;;;20.30;99.90;;;;;;2073006;28;20272;-71
2022/08/14 04:26:33;;;;;;;8.05;7.35;;;20.30;99.90;;;;;;2074340;28;20026;-71
2022/08/14 04:27:34;;;;;;;7.60;6.90;;;20.30;99.90;;;;;;2074329;28;20149;-71
2022/08/14 04:28:39;;;;;;;8.90;7.90;;;20.30;99.90;;;;;;2072172;28;20071;-71
2022/08/14 04:29:41;;;;;;;8.38;7.78;;;20.30;99.90;;;;;;2075195;28;20063;-71
2022/08/14 04:30:42;;;;;;;9.05;7.22;;;20.30;99.90;;;;;;2072050;28;20034;-71
2022/08/14 04:31:43;;;;;;;8.45;7.15;;;20.20;99.90;;;;;;2075524;28;20026;-71
2022/08/14 04:32:44;;;;;;;8.07;7.05;;;20.30;99.90;;;;;;2076807;28;20592;-71
2022/08/14 04:33:45;;;;;;;8.30;7.40;;;20.20;99.90;;;;;;2073449;28;20022;-71
2022/08/14 04:34:46;;;;;;;7.57;6.90;;;20.20;99.90;;;;;;2076638;28;20026;-71
2022/08/14 04:35:46;;;;;;;8.18;7.47;;;20.20;99.90;;;;;;2076745;28;20071;-71
2022/08/14 04:43:37;;;;;;;7.95;7.28;;;20.10;99.90;;;;;;2074631;28;20025;-71
2022/08/14 04:44:37;;;;;;;9.27;7.47;;;20.10;99.90;;;;;;2074229;28;20022;-71
2022/08/14 04:45:41;;;;;;;8.32;7.63;;;20.10;99.90;;;;;;2073357;28;20466;-71
2022/08/14 04:48:11;;;;;;;8.13;7.43;;;20.10;99.90;;;;;;2075575;28;20018;-71
2022/08/14 04:48:11;;;;;;;8.73;7.82;;;20.10;99.90;;;;;;2071274;28;20084;-71
2022/08/14 04:49:12;;;;;;;8.00;7.30;;;20.10;99.90;;;;;;2074483;28;20399;-71
2022/08/14 04:50:13;;;;;;;7.53;6.93;;;20.10;99.90;;;;;;2072949;28;20060;-71
2022/08/14 04:51:15;;;;;;;8.77;7.90;;;20.10;99.90;;;;;;2066772;28;20117;-71
2022/08/14 04:52:16;;;;;;;9.25;7.95;;;20.10;99.90;;;;;;2065021;28;20026;-71
2022/08/14 04:53:21;;;;;;;9.20;8.30;;;20.10;99.90;;;;;;2073065;28;20124;-71
2022/08/14 04:54:25;;;;;;;8.05;7.05;;;20.10;99.90;;;;;;2073088;28;20101;-71
2022/08/14 04:55:26;;;;;;;7.80;7.00;;;20.10;99.90;;;;;;2074150;28;20481;-71
2022/08/14 04:56:27;;;;;;;7.78;7.18;;;20.10;99.90;;;;;;2076361;28;20034;-71
2022/08/14 04:57:27;;;;;;;8.02;7.25;;;20.10;99.90;;;;;;2073969;28;20026;-71
2022/08/14 04:58:31;;;;;;;8.43;7.55;;;20.10;99.90;;;;;;2073812;28;20018;-71
2022/08/14 04:59:32;;;;;;;8.48;7.68;;;20.10;99.90;;;;;;2075566;28;20022;-70
2022/08/14 05:00:33;;;;;;;8.68;7.95;;;20.10;99.90;;;;;;2075133;28;20069;-71
2022/08/14 05:01:33;;;;;;;8.48;7.68;;;20.10;99.90;;;;;;2072937;28;20018;-71
2022/08/14 05:02:34;;;;;;;9.02;7.90;;;20.20;99.90;;;;;;2072953;28;20026;-71
2022/08/14 05:03:36;;;;;;;9.73;8.00;;;20.10;99.90;;;;;;2072215;28;20461;-71
2022/08/14 05:04:36;;;;;;;8.43;7.70;;;20.20;99.90;;;;;;2075388;28;20021;-71
2022/08/14 05:05:38;;;;;;;8.60;7.88;;;20.20;99.90;;;;;;2074851;28;20018;-71
2022/08/14 05:06:39;;;;;;;8.30;7.65;;;20.20;99.90;;;;;;2074027;28;20041;-71
2022/08/14 05:07:41;;;;;;;8.05;7.25;;;20.20;99.90;;;;;;2074826;28;20030;-71
2022/08/14 05:08:42;;;;;;;8.13;7.47;;;20.20;99.90;;;;;;2074013;28;20018;-71
2022/08/14 05:09:42;;;;;;;8.60;7.85;;;20.20;99.90;;;;;;2074244;28;20026;-71
2022/08/14 05:10:50;;;;;;;8.07;7.38;;;20.20;99.90;;;;;;2073236;28;20458;-71
2022/08/14 05:11:51;;;;;;;8.43;7.63;;;20.20;99.90;;;;;;2073477;28;20056;-71
2022/08/14 05:12:52;;;;;;;10.27;7.55;;;20.20;99.90;;;;;;2073609;28;20072;-71
2022/08/14 05:13:52;;;;;;;8.20;7.38;;;20.20;99.90;;;;;;2087389;28;20028;-71
2022/08/14 05:14:53;;;;;;;10.85;8.75;;;20.20;99.90;;;;;;2088452;28;20020;-71
2022/08/14 05:15:57;;;;;;;9.35;7.70;;;20.20;99.90;;;;;;2075012;28;20026;-71
2022/08/14 05:16:58;;;;;;;7.95;7.18;;;20.20;99.90;;;;;;2073378;28;20022;-71
2022/08/14 05:18:01;;;;;;;8.82;7.40;;;20.30;99.90;;;;;;2074500;28;20024;-71
2022/08/14 05:19:03;;;;;;;8.82;7.88;;;20.20;99.90;;;;;;2073463;28;20056;-71
2022/08/14 05:20:04;;;;;;;8.48;7.72;;;20.30;99.90;;;;;;2073929;28;20018;-71
2022/08/14 05:21:06;;;;;;;8.52;7.82;;;20.30;99.90;;;;;;2074131;28;20081;-71
2022/08/14 05:22:08;;;;;;;8.75;7.88;;;20.30;99.90;;;;;;2077580;28;20041;-71
2022/08/14 05:23:09;;;;;;;8.40;7.70;;;20.30;99.90;;;;;;2075122;28;20079;-71
2022/08/14 05:24:11;;;;;;;12.02;8.70;;;20.40;99.90;;;;;;2075136;28;20536;-71
2022/08/14 05:25:11;;;;;;;9.65;8.75;;;20.40;99.90;;;;;;2075487;28;20619;-71
2022/08/14 05:26:13;;;;;;;9.73;8.85;;;20.40;99.90;;;;;;2074652;28;20080;-71
2022/08/14 05:27:15;;;;;;;13.80;9.40;;;20.40;99.90;;;;;;2072761;28;20576;-71
2022/08/14 05:28:25;;;;;;;9.68;8.77;;;20.50;99.90;;;;;;2073521;28;20030;-70
2022/08/14 05:29:25;;;;;;;11.10;9.52;;;20.60;99.90;;;;;;2073733;28;20382;-70
2022/08/14 05:30:26;;;;;;;10.38;9.25;;;20.60;99.90;;;;;;2075063;28;20022;-70
2022/08/14 05:31:26;;;;;;;9.60;8.80;;;20.60;99.90;;;;;;2076355;28;20022;-71
2022/08/14 05:32:27;;;;;;;13.00;9.70;;;20.60;99.90;;;;;;2073649;28;20022;-71